DLH3LF EDDF-EDDL
Flight info
| Callsign | DLH3LF |
|---|---|
| Flight time | 0h 31m |
| Altitude | 22000 |
| Route | MARUN3W/25C MARUN Y152 ARPEG Z850 ADEMI T854 DOMUX DOMUX1A |
| Aircraft | A321/M-SDE3FGHIRWY/LB1 |
Departure
| Time | 2026-05-05 09:26 |
|---|---|
| Airport | Frankfurt Main Airport (EDDF) |
Arrival
| Time | 2026-05-05 09:57 |
|---|---|
| Airport | Düsseldorf Airport (EDDL) |
| Time | Latitude | Longitude | Altitude | Speed | Heading |
|---|---|---|---|---|---|
| 2026-05-05 09:01 | 50.04539 | 8.56221 | 363 ft | 0 kts | 40° |
| 2026-05-05 09:15 | 50.04537 | 8.56218 | 364 ft | 3 kts | 39° |
| 2026-05-05 09:16 | 50.04515 | 8.56200 | 363 ft | 4 kts | 10° |
| 2026-05-05 09:16 | 50.04492 | 8.56196 | 359 ft | 4 kts | 340° |
| 2026-05-05 09:16 | 50.04480 | 8.56215 | 363 ft | 4 kts | 268° |
| 2026-05-05 09:16 | 50.04483 | 8.56244 | 361 ft | 2 kts | 250° |
| 2026-05-05 09:17 | 50.04476 | 8.56215 | 364 ft | 4 kts | 250° |
| 2026-05-05 09:17 | 50.04466 | 8.56175 | 363 ft | 4 kts | 250° |
| 2026-05-05 09:17 | 50.04457 | 8.56136 | 361 ft | 4 kts | 250° |
| 2026-05-05 09:17 | 50.04454 | 8.56123 | 363 ft | 0 kts | 250° |
| 2026-05-05 09:19 | 50.04453 | 8.56122 | 363 ft | 1 kts | 249° |
| 2026-05-05 09:20 | 50.04443 | 8.56077 | 357 ft | 7 kts | 248° |
| 2026-05-05 09:20 | 50.04406 | 8.56028 | 359 ft | 7 kts | 190° |
| 2026-05-05 09:20 | 50.04349 | 8.56052 | 360 ft | 10 kts | 160° |
| 2026-05-05 09:20 | 50.04293 | 8.56111 | 359 ft | 11 kts | 115° |
| 2026-05-05 09:21 | 50.04274 | 8.56213 | 356 ft | 10 kts | 140° |
| 2026-05-05 09:21 | 50.04203 | 8.56262 | 356 ft | 12 kts | 160° |
| 2026-05-05 09:21 | 50.04149 | 8.56314 | 359 ft | 9 kts | 115° |
| 2026-05-05 09:21 | 50.04161 | 8.56421 | 356 ft | 12 kts | 70° |
| 2026-05-05 09:22 | 50.04196 | 8.56569 | 358 ft | 17 kts | 69° |
| 2026-05-05 09:22 | 50.04242 | 8.56758 | 362 ft | 19 kts | 70° |
| 2026-05-05 09:22 | 50.04287 | 8.56947 | 362 ft | 19 kts | 69° |
| 2026-05-05 09:22 | 50.04334 | 8.57143 | 363 ft | 19 kts | 70° |
| 2026-05-05 09:23 | 50.04382 | 8.57346 | 363 ft | 21 kts | 69° |
| 2026-05-05 09:23 | 50.04432 | 8.57556 | 365 ft | 21 kts | 69° |
| 2026-05-05 09:23 | 50.04482 | 8.57766 | 368 ft | 21 kts | 69° |
| 2026-05-05 09:23 | 50.04525 | 8.57943 | 364 ft | 10 kts | 69° |
| 2026-05-05 09:24 | 50.04525 | 8.58055 | 368 ft | 9 kts | 127° |
| 2026-05-05 09:24 | 50.04487 | 8.58088 | 365 ft | 3 kts | 159° |
| 2026-05-05 09:24 | 50.04446 | 8.58111 | 371 ft | 9 kts | 160° |
| 2026-05-05 09:24 | 50.04388 | 8.58124 | 369 ft | 8 kts | 194° |
| 2026-05-05 09:25 | 50.04359 | 8.58053 | 370 ft | 7 kts | 249° |
| 2026-05-05 09:25 | 50.04354 | 8.58033 | 368 ft | 0 kts | 249° |
| 2026-05-05 09:25 | 50.04334 | 8.57949 | 367 ft | 37 kts | 249° |
| 2026-05-05 09:25 | 50.04150 | 8.57176 | 368 ft | 112 kts | 249° |
| 2026-05-05 09:26 | 50.03808 | 8.55748 | 365 ft | 170 kts | 249° |
| 2026-05-05 09:26 | 50.03381 | 8.53985 | 982 ft | 174 kts | 249° |
| 2026-05-05 09:26 | 50.02948 | 8.52213 | 1756 ft | 177 kts | 249° |
| 2026-05-05 09:26 | 50.02473 | 8.50387 | 2213 ft | 190 kts | 240° |
| 2026-05-05 09:27 | 50.01540 | 8.48816 | 2614 ft | 205 kts | 213° |
| 2026-05-05 09:27 | 50.00231 | 8.47981 | 3250 ft | 205 kts | 190° |
| 2026-05-05 09:27 | 49.98815 | 8.47727 | 3925 ft | 205 kts | 187° |
| 2026-05-05 09:27 | 49.97399 | 8.47418 | 4561 ft | 207 kts | 188° |
| 2026-05-05 09:28 | 49.95972 | 8.47057 | 5181 ft | 209 kts | 193° |
| 2026-05-05 09:28 | 49.94551 | 8.46417 | 5604 ft | 224 kts | 196° |
| 2026-05-05 09:28 | 49.92985 | 8.45674 | 5995 ft | 244 kts | 199° |
| 2026-05-05 09:28 | 49.91550 | 8.44308 | 6782 ft | 248 kts | 227° |
| 2026-05-05 09:29 | 49.90755 | 8.41926 | 7545 ft | 255 kts | 257° |
| 2026-05-05 09:29 | 49.90772 | 8.39165 | 8351 ft | 262 kts | 283° |
| 2026-05-05 09:29 | 49.91625 | 8.36671 | 9238 ft | 267 kts | 314° |
| 2026-05-05 09:29 | 49.93210 | 8.35165 | 10020 ft | 272 kts | 337° |
| 2026-05-05 09:30 | 49.95031 | 8.34052 | 10381 ft | 293 kts | 337° |
| 2026-05-05 09:30 | 49.96989 | 8.32810 | 10602 ft | 316 kts | 336° |
| 2026-05-05 09:30 | 49.99090 | 8.31445 | 10731 ft | 338 kts | 336° |
| 2026-05-05 09:30 | 50.01295 | 8.29996 | 10952 ft | 357 kts | 336° |
| 2026-05-05 09:31 | 50.03706 | 8.28913 | 11476 ft | 366 kts | 351° |
| 2026-05-05 09:31 | 50.06268 | 8.28849 | 12121 ft | 372 kts | 6° |
| 2026-05-05 09:31 | 50.08787 | 8.29825 | 12740 ft | 377 kts | 18° |
| 2026-05-05 09:31 | 50.11286 | 8.31148 | 13372 ft | 381 kts | 18° |
| 2026-05-05 09:32 | 50.13809 | 8.32478 | 13936 ft | 385 kts | 18° |
| 2026-05-05 09:32 | 50.16363 | 8.33820 | 14485 ft | 389 kts | 18° |
| 2026-05-05 09:32 | 50.18941 | 8.35170 | 15029 ft | 393 kts | 18° |
| 2026-05-05 09:32 | 50.21509 | 8.36511 | 15562 ft | 397 kts | 18° |
| 2026-05-05 09:33 | 50.24211 | 8.37406 | 16091 ft | 399 kts | 2° |
| 2026-05-05 09:33 | 50.26988 | 8.37296 | 16628 ft | 401 kts | 355° |
| 2026-05-05 09:33 | 50.29789 | 8.37062 | 17185 ft | 405 kts | 355° |
| 2026-05-05 09:33 | 50.32614 | 8.36816 | 17727 ft | 408 kts | 355° |
| 2026-05-05 09:34 | 50.35458 | 8.36558 | 18237 ft | 411 kts | 355° |
| 2026-05-05 09:34 | 50.38323 | 8.36297 | 18690 ft | 414 kts | 355° |
| 2026-05-05 09:34 | 50.41203 | 8.36043 | 19148 ft | 416 kts | 355° |
| 2026-05-05 09:34 | 50.44101 | 8.35787 | 19624 ft | 418 kts | 355° |
| 2026-05-05 09:35 | 50.47012 | 8.35531 | 20102 ft | 420 kts | 355° |
| 2026-05-05 09:35 | 50.52844 | 8.35014 | 21018 ft | 425 kts | 355° |
| 2026-05-05 09:35 | 50.55809 | 8.34754 | 21459 ft | 428 kts | 355° |
| 2026-05-05 09:36 | 50.58788 | 8.34493 | 21800 ft | 430 kts | 355° |
| 2026-05-05 09:36 | 50.61786 | 8.34228 | 21882 ft | 436 kts | 355° |
| 2026-05-05 09:36 | 50.64837 | 8.33952 | 21884 ft | 441 kts | 355° |
| 2026-05-05 09:36 | 50.67912 | 8.33674 | 21888 ft | 442 kts | 355° |
| 2026-05-05 09:37 | 50.70984 | 8.33399 | 21888 ft | 443 kts | 355° |
| 2026-05-05 09:37 | 50.74019 | 8.33130 | 21890 ft | 443 kts | 355° |
| 2026-05-05 09:37 | 50.77096 | 8.32856 | 21888 ft | 443 kts | 355° |
| 2026-05-05 09:37 | 50.80172 | 8.32580 | 21888 ft | 443 kts | 355° |
| 2026-05-05 09:38 | 50.83242 | 8.32301 | 21886 ft | 442 kts | 355° |
| 2026-05-05 09:38 | 50.86315 | 8.32022 | 21883 ft | 442 kts | 355° |
| 2026-05-05 09:38 | 50.89376 | 8.31741 | 21885 ft | 441 kts | 355° |
| 2026-05-05 09:38 | 50.92446 | 8.31458 | 21878 ft | 441 kts | 355° |
| 2026-05-05 09:39 | 50.95504 | 8.31181 | 21876 ft | 440 kts | 355° |
| 2026-05-05 09:39 | 50.98560 | 8.30842 | 21876 ft | 439 kts | 351° |
| 2026-05-05 09:39 | 51.01500 | 8.29886 | 21873 ft | 437 kts | 342° |
| 2026-05-05 09:39 | 51.04330 | 8.28190 | 21870 ft | 434 kts | 333° |
| 2026-05-05 09:40 | 51.06977 | 8.25907 | 21864 ft | 433 kts | 329° |
| 2026-05-05 09:40 | 51.09598 | 8.23554 | 21869 ft | 433 kts | 329° |
| 2026-05-05 09:40 | 51.12224 | 8.21209 | 21868 ft | 433 kts | 329° |
| 2026-05-05 09:40 | 51.14847 | 8.18876 | 21866 ft | 429 kts | 329° |
| 2026-05-05 09:41 | 51.17417 | 8.16594 | 21463 ft | 418 kts | 329° |
| 2026-05-05 09:41 | 51.19938 | 8.14358 | 20863 ft | 412 kts | 329° |
| 2026-05-05 09:41 | 51.22428 | 8.12141 | 20246 ft | 408 kts | 329° |
| 2026-05-05 09:41 | 51.24860 | 8.09963 | 19655 ft | 404 kts | 329° |
| 2026-05-05 09:42 | 51.27280 | 8.07787 | 18840 ft | 394 kts | 329° |
| 2026-05-05 09:42 | 51.29648 | 8.05655 | 17599 ft | 388 kts | 329° |
| 2026-05-05 09:42 | 51.31979 | 8.03556 | 16324 ft | 381 kts | 329° |
| 2026-05-05 09:42 | 51.34277 | 8.01488 | 15090 ft | 375 kts | 329° |
| 2026-05-05 09:43 | 51.36523 | 7.99450 | 13914 ft | 368 kts | 327° |
| 2026-05-05 09:43 | 51.38516 | 7.96974 | 12687 ft | 364 kts | 315° |
| 2026-05-05 09:43 | 51.40324 | 7.94142 | 12040 ft | 361 kts | 314° |
| 2026-05-05 09:43 | 51.42097 | 7.91322 | 11428 ft | 358 kts | 314° |
| 2026-05-05 09:44 | 51.43852 | 7.88520 | 10792 ft | 353 kts | 314° |
| 2026-05-05 09:44 | 51.45540 | 7.85824 | 9921 ft | 340 kts | 314° |
| 2026-05-05 09:44 | 51.47141 | 7.83272 | 9644 ft | 310 kts | 314° |
| 2026-05-05 09:44 | 51.48618 | 7.80907 | 9173 ft | 292 kts | 310° |
| 2026-05-05 09:45 | 51.49640 | 7.78204 | 8490 ft | 280 kts | 288° |
| 2026-05-05 09:45 | 51.50227 | 7.75235 | 7725 ft | 280 kts | 284° |
| 2026-05-05 09:45 | 51.50756 | 7.72236 | 7329 ft | 278 kts | 283° |
| 2026-05-05 09:45 | 51.51275 | 7.69256 | 6949 ft | 276 kts | 283° |
| 2026-05-05 09:46 | 51.51634 | 7.66253 | 6556 ft | 273 kts | 275° |
| 2026-05-05 09:46 | 51.51837 | 7.63225 | 6169 ft | 272 kts | 274° |
| 2026-05-05 09:46 | 51.52021 | 7.60253 | 5768 ft | 271 kts | 273° |
| 2026-05-05 09:46 | 51.52202 | 7.57253 | 5379 ft | 269 kts | 274° |
| 2026-05-05 09:47 | 51.52378 | 7.54265 | 4978 ft | 268 kts | 274° |
| 2026-05-05 09:47 | 51.52550 | 7.51299 | 4599 ft | 267 kts | 274° |
| 2026-05-05 09:47 | 51.52719 | 7.48344 | 4209 ft | 265 kts | 274° |
| 2026-05-05 09:47 | 51.52880 | 7.45402 | 3829 ft | 264 kts | 274° |
| 2026-05-05 09:48 | 51.53030 | 7.42477 | 3439 ft | 262 kts | 274° |
| 2026-05-05 09:48 | 51.53172 | 7.39561 | 3075 ft | 261 kts | 274° |
| 2026-05-05 09:48 | 51.53303 | 7.36719 | 3008 ft | 260 kts | 274° |
| 2026-05-05 09:48 | 51.53435 | 7.33806 | 3011 ft | 262 kts | 274° |
| 2026-05-05 09:49 | 51.53466 | 7.30890 | 3005 ft | 261 kts | 259° |
| 2026-05-05 09:49 | 51.52795 | 7.28221 | 3007 ft | 259 kts | 238° |
| 2026-05-05 09:49 | 51.51877 | 7.25713 | 3010 ft | 261 kts | 246° |
| 2026-05-05 09:49 | 51.51102 | 7.23082 | 3017 ft | 261 kts | 238° |
| 2026-05-05 09:50 | 51.50056 | 7.20714 | 3009 ft | 258 kts | 232° |
| 2026-05-05 09:50 | 51.48988 | 7.18501 | 3015 ft | 241 kts | 232° |
| 2026-05-05 09:50 | 51.48010 | 7.16434 | 3036 ft | 222 kts | 232° |
| 2026-05-05 09:50 | 51.47129 | 7.14557 | 3014 ft | 203 kts | 232° |
| 2026-05-05 09:51 | 51.46304 | 7.12798 | 3024 ft | 194 kts | 232° |
| 2026-05-05 09:51 | 51.45502 | 7.11091 | 3010 ft | 190 kts | 232° |
| 2026-05-05 09:51 | 51.44708 | 7.09401 | 3012 ft | 189 kts | 232° |
| 2026-05-05 09:51 | 51.43917 | 7.07719 | 3010 ft | 189 kts | 232° |
| 2026-05-05 09:52 | 51.43128 | 7.06042 | 3011 ft | 188 kts | 232° |
| 2026-05-05 09:52 | 51.42338 | 7.04365 | 3009 ft | 189 kts | 232° |
| 2026-05-05 09:52 | 51.41548 | 7.02688 | 3006 ft | 189 kts | 232° |
| 2026-05-05 09:52 | 51.40756 | 7.01008 | 3005 ft | 189 kts | 232° |
| 2026-05-05 09:53 | 51.39966 | 6.99333 | 3014 ft | 189 kts | 232° |
| 2026-05-05 09:53 | 51.39186 | 6.97680 | 3003 ft | 189 kts | 232° |
| 2026-05-05 09:53 | 51.38393 | 6.96002 | 2935 ft | 189 kts | 232° |
| 2026-05-05 09:53 | 51.37601 | 6.94327 | 2755 ft | 189 kts | 232° |
| 2026-05-05 09:54 | 51.36808 | 6.92659 | 2542 ft | 188 kts | 232° |
| 2026-05-05 09:54 | 51.36027 | 6.90991 | 2241 ft | 183 kts | 233° |
| 2026-05-05 09:54 | 51.35301 | 6.89414 | 2024 ft | 169 kts | 234° |
| 2026-05-05 09:54 | 51.34613 | 6.87953 | 1774 ft | 161 kts | 232° |
| 2026-05-05 09:55 | 51.33939 | 6.86582 | 1540 ft | 154 kts | 232° |
| 2026-05-05 09:55 | 51.33296 | 6.85243 | 1374 ft | 153 kts | 234° |
| 2026-05-05 09:55 | 51.32666 | 6.83891 | 1154 ft | 152 kts | 233° |
| 2026-05-05 09:55 | 51.32036 | 6.82562 | 946 ft | 149 kts | 234° |
| 2026-05-05 09:56 | 51.31414 | 6.81258 | 738 ft | 146 kts | 237° |
| 2026-05-05 09:56 | 51.30799 | 6.79963 | 543 ft | 146 kts | 237° |
| 2026-05-05 09:56 | 51.30184 | 6.78682 | 329 ft | 144 kts | 236° |
| 2026-05-05 09:56 | 51.29579 | 6.77418 | 147 ft | 143 kts | 236° |
| 2026-05-05 09:57 | 51.29074 | 6.76348 | 132 ft | 83 kts | 232° |
| 2026-05-05 09:57 | 51.28858 | 6.75901 | 127 ft | 34 kts | 230° |
| 2026-05-05 09:57 | 51.28721 | 6.75719 | 126 ft | 19 kts | 207° |
| 2026-05-05 09:57 | 51.28618 | 6.75679 | 122 ft | 15 kts | 181° |
| 2026-05-05 09:58 | 51.28535 | 6.75705 | 121 ft | 12 kts | 159° |
| 2026-05-05 09:58 | 51.28461 | 6.75776 | 122 ft | 13 kts | 144° |
| 2026-05-05 09:58 | 51.28392 | 6.75862 | 124 ft | 11 kts | 142° |
| 2026-05-05 09:58 | 51.28330 | 6.75937 | 128 ft | 11 kts | 143° |
| 2026-05-05 09:59 | 51.28271 | 6.76004 | 124 ft | 10 kts | 145° |
| 2026-05-05 09:59 | 51.28225 | 6.76053 | 125 ft | 5 kts | 148° |
| 2026-05-05 09:59 | 51.28221 | 6.76058 | 125 ft | 0 kts | 148° |
| 2026-05-05 10:00 | 51.28209 | 6.76070 | 127 ft | 5 kts | 145° |
| 2026-05-05 10:00 | 51.28191 | 6.76132 | 126 ft | 7 kts | 86° |
| 2026-05-05 10:00 | 51.28203 | 6.76207 | 127 ft | 7 kts | 93° |
| 2026-05-05 10:00 | 51.28165 | 6.76277 | 124 ft | 9 kts | 138° |
| 2026-05-05 10:01 | 51.28132 | 6.76353 | 127 ft | 9 kts | 121° |
| 2026-05-05 10:01 | 51.28090 | 6.76421 | 128 ft | 7 kts | 144° |
| 2026-05-05 10:01 | 51.28079 | 6.76433 | 124 ft | 0 kts | 147° |
| 2026-05-05 10:01 | 51.28078 | 6.76434 | 124 ft | 0 kts | 147° |
| 2026-05-05 10:02 | 51.28072 | 6.76440 | 125 ft | 2 kts | 147° |
| 2026-05-05 10:02 | 51.28051 | 6.76462 | 123 ft | 4 kts | 147° |
| 2026-05-05 10:02 | 51.28034 | 6.76486 | 127 ft | 2 kts | 129° |
| 2026-05-05 10:02 | 51.28029 | 6.76506 | 124 ft | 2 kts | 106° |
| 2026-05-05 10:03 | 51.28029 | 6.76519 | 128 ft | 1 kts | 91° |
| 2026-05-05 10:03 | 51.28029 | 6.76527 | 128 ft | 0 kts | 90° |